sensor_id;sensor_type;location;lat;lon;timestamp;P1;durP1;ratioP1;P2;durP2;ratioP2
77010;SDS011;65945;53.148;17.956;2023-01-13T00:00:58;7.20;;;3.70;;
77010;SDS011;65945;53.148;17.956;2023-01-13T00:03:25;7.90;;;3.90;;
77010;SDS011;65945;53.148;17.956;2023-01-13T00:05:51;7.80;;;4.00;;
77010;SDS011;65945;53.148;17.956;2023-01-13T00:08:18;7.20;;;3.50;;
77010;SDS011;65945;53.148;17.956;2023-01-13T00:10:47;6.70;;;3.90;;
77010;SDS011;65945;53.148;17.956;2023-01-13T00:13:14;8.00;;;4.00;;
77010;SDS011;65945;53.148;17.956;2023-01-13T00:15:41;5.40;;;3.10;;
77010;SDS011;65945;53.148;17.956;2023-01-13T00:18:08;6.70;;;3.40;;
77010;SDS011;65945;53.148;17.956;2023-01-13T00:20:34;7.00;;;4.10;;
77010;SDS011;65945;53.148;17.956;2023-01-13T00:23:01;10.10;;;4.50;;
77010;SDS011;65945;53.148;17.956;2023-01-13T00:25:29;5.60;;;3.60;;
77010;SDS011;65945;53.148;17.956;2023-01-13T00:27:56;6.30;;;3.90;;
77010;SDS011;65945;53.148;17.956;2023-01-13T00:30:22;6.50;;;3.90;;
77010;SDS011;65945;53.148;17.956;2023-01-13T00:32:49;9.40;;;4.70;;
77010;SDS011;65945;53.148;17.956;2023-01-13T00:35:15;8.60;;;3.60;;
77010;SDS011;65945;53.148;17.956;2023-01-13T00:37:42;8.80;;;4.60;;
77010;SDS011;65945;53.148;17.956;2023-01-13T00:40:09;9.50;;;4.00;;
77010;SDS011;65945;53.148;17.956;2023-01-13T00:42:36;7.50;;;4.30;;
77010;SDS011;65945;53.148;17.956;2023-01-13T00:45:21;8.00;;;4.30;;
77010;SDS011;65945;53.148;17.956;2023-01-13T00:47:48;6.90;;;4.40;;
77010;SDS011;65945;53.148;17.956;2023-01-13T00:50:14;7.00;;;4.30;;
77010;SDS011;65945;53.148;17.956;2023-01-13T00:52:41;10.00;;;4.00;;
77010;SDS011;65945;53.148;17.956;2023-01-13T00:55:08;8.20;;;4.30;;
77010;SDS011;65945;53.148;17.956;2023-01-13T00:57:34;6.60;;;4.40;;
77010;SDS011;65945;53.148;17.956;2023-01-13T01:00:02;6.90;;;4.20;;
77010;SDS011;65945;53.148;17.956;2023-01-13T01:02:29;7.40;;;4.50;;
77010;SDS011;65945;53.148;17.956;2023-01-13T01:04:55;9.70;;;6.00;;
77010;SDS011;65945;53.148;17.956;2023-01-13T01:07:22;7.20;;;4.10;;
77010;SDS011;65945;53.148;17.956;2023-01-13T01:09:48;7.00;;;4.20;;
77010;SDS011;65945;53.148;17.956;2023-01-13T01:12:15;5.80;;;4.20;;
77010;SDS011;65945;53.148;17.956;2023-01-13T01:14:42;8.50;;;4.10;;
77010;SDS011;65945;53.148;17.956;2023-01-13T01:17:09;6.30;;;4.10;;
77010;SDS011;65945;53.148;17.956;2023-01-13T01:19:35;5.70;;;3.70;;
77010;SDS011;65945;53.148;17.956;2023-01-13T01:22:04;6.50;;;3.50;;
77010;SDS011;65945;53.148;17.956;2023-01-13T01:24:30;6.10;;;3.80;;
77010;SDS011;65945;53.148;17.956;2023-01-13T01:26:57;5.40;;;3.30;;
77010;SDS011;65945;53.148;17.956;2023-01-13T01:29:23;6.10;;;3.60;;
77010;SDS011;65945;53.148;17.956;2023-01-13T01:31:50;6.50;;;3.90;;
77010;SDS011;65945;53.148;17.956;2023-01-13T01:34:17;6.40;;;3.60;;
77010;SDS011;65945;53.148;17.956;2023-01-13T01:36:43;6.40;;;3.90;;
77010;SDS011;65945;53.148;17.956;2023-01-13T01:39:10;7.50;;;3.70;;
77010;SDS011;65945;53.148;17.956;2023-01-13T01:41:37;6.40;;;3.50;;
77010;SDS011;65945;53.148;17.956;2023-01-13T01:47:08;5.20;;;3.10;;
77010;SDS011;65945;53.148;17.956;2023-01-13T01:49:39;5.30;;;3.40;;
77010;SDS011;65945;53.148;17.956;2023-01-13T01:52:27;5.10;;;3.10;;
77010;SDS011;65945;53.148;17.956;2023-01-13T01:55:01;5.90;;;3.10;;
77010;SDS011;65945;53.148;17.956;2023-01-13T01:57:35;6.50;;;3.40;;
77010;SDS011;65945;53.148;17.956;2023-01-13T02:00:08;5.80;;;3.60;;
77010;SDS011;65945;53.148;17.956;2023-01-13T02:02:41;6.20;;;3.50;;
77010;SDS011;65945;53.148;17.956;2023-01-13T02:05:10;6.30;;;3.10;;
77010;SDS011;65945;53.148;17.956;2023-01-13T02:07:38;4.90;;;3.10;;
77010;SDS011;65945;53.148;17.956;2023-01-13T02:10:08;8.80;;;2.80;;
77010;SDS011;65945;53.148;17.956;2023-01-13T02:12:37;7.80;;;3.40;;
77010;SDS011;65945;53.148;17.956;2023-01-13T02:30:17;4.80;;;3.00;;
77010;SDS011;65945;53.148;17.956;2023-01-13T02:33:16;5.40;;;2.70;;
77010;SDS011;65945;53.148;17.956;2023-01-13T02:35:54;4.70;;;3.00;;
77010;SDS011;65945;53.148;17.956;2023-01-13T02:38:29;5.10;;;2.90;;
77010;SDS011;65945;53.148;17.956;2023-01-13T02:41:02;5.20;;;2.80;;
77010;SDS011;65945;53.148;17.956;2023-01-13T02:43:54;4.80;;;3.10;;
77010;SDS011;65945;53.148;17.956;2023-01-13T02:49:09;5.30;;;2.70;;
77010;SDS011;65945;53.148;17.956;2023-01-13T02:51:39;5.80;;;3.00;;
77010;SDS011;65945;53.148;17.956;2023-01-13T02:54:21;5.90;;;3.40;;
77010;SDS011;65945;53.148;17.956;2023-01-13T02:56:51;5.00;;;3.10;;
77010;SDS011;65945;53.148;17.956;2023-01-13T02:59:21;6.20;;;3.20;;
77010;SDS011;65945;53.148;17.956;2023-01-13T03:01:51;4.00;;;2.00;;
77010;SDS011;65945;53.148;17.956;2023-01-13T03:07:21;4.50;;;2.70;;
77010;SDS011;65945;53.148;17.956;2023-01-13T03:10:09;5.80;;;3.20;;
77010;SDS011;65945;53.148;17.956;2023-01-13T03:23:36;5.10;;;3.00;;
77010;SDS011;65945;53.148;17.956;2023-01-13T03:26:18;5.30;;;3.00;;
77010;SDS011;65945;53.148;17.956;2023-01-13T03:29:06;5.20;;;3.20;;
77010;SDS011;65945;53.148;17.956;2023-01-13T03:31:39;5.60;;;3.00;;
77010;SDS011;65945;53.148;17.956;2023-01-13T03:34:14;4.30;;;2.60;;
77010;SDS011;65945;53.148;17.956;2023-01-13T03:36:45;5.30;;;2.70;;
77010;SDS011;65945;53.148;17.956;2023-01-13T03:39:19;6.10;;;3.00;;
77010;SDS011;65945;53.148;17.956;2023-01-13T03:41:54;4.20;;;2.80;;
77010;SDS011;65945;53.148;17.956;2023-01-13T03:44:33;5.20;;;2.90;;
77010;SDS011;65945;53.148;17.956;2023-01-13T03:47:15;4.80;;;2.80;;
77010;SDS011;65945;53.148;17.956;2023-01-13T03:49:53;4.80;;;2.90;;
77010;SDS011;65945;53.148;17.956;2023-01-13T03:52:27;6.00;;;2.90;;
77010;SDS011;65945;53.148;17.956;2023-01-13T03:55:00;3.60;;;2.60;;
77010;SDS011;65945;53.148;17.956;2023-01-13T03:57:48;4.50;;;2.90;;
77010;SDS011;65945;53.148;17.956;2023-01-13T04:00:29;4.40;;;2.60;;
77010;SDS011;65945;53.148;17.956;2023-01-13T04:03:09;5.10;;;2.80;;
77010;SDS011;65945;53.148;17.956;2023-01-13T04:05:40;6.50;;;2.80;;
77010;SDS011;65945;53.148;17.956;2023-01-13T04:10:48;6.00;;;3.30;;
77010;SDS011;65945;53.148;17.956;2023-01-13T04:13:22;5.20;;;3.00;;
77010;SDS011;65945;53.148;17.956;2023-01-13T04:15:53;5.50;;;3.30;;
77010;SDS011;65945;53.148;17.956;2023-01-13T04:18:24;6.40;;;3.10;;
77010;SDS011;65945;53.148;17.956;2023-01-13T04:20:53;6.40;;;3.20;;
77010;SDS011;65945;53.148;17.956;2023-01-13T04:23:22;5.50;;;2.90;;
77010;SDS011;65945;53.148;17.956;2023-01-13T04:25:50;10.40;;;3.20;;
77010;SDS011;65945;53.148;17.956;2023-01-13T04:28:17;4.30;;;2.80;;
77010;SDS011;65945;53.148;17.956;2023-01-13T04:30:44;6.50;;;2.90;;
77010;SDS011;65945;53.148;17.956;2023-01-13T04:33:12;5.60;;;3.10;;
77010;SDS011;65945;53.148;17.956;2023-01-13T04:35:40;4.50;;;3.20;;
77010;SDS011;65945;53.148;17.956;2023-01-13T04:38:10;4.90;;;3.10;;
77010;SDS011;65945;53.148;17.956;2023-01-13T04:40:38;7.00;;;3.40;;
77010;SDS011;65945;53.148;17.956;2023-01-13T04:43:05;5.20;;;3.20;;
77010;SDS011;65945;53.148;17.956;2023-01-13T04:45:32;7.20;;;3.30;;
77010;SDS011;65945;53.148;17.956;2023-01-13T04:47:59;6.80;;;3.80;;
77010;SDS011;65945;53.148;17.956;2023-01-13T04:50:26;5.30;;;3.40;;
77010;SDS011;65945;53.148;17.956;2023-01-13T04:52:53;5.80;;;3.50;;
77010;SDS011;65945;53.148;17.956;2023-01-13T04:55:21;5.50;;;3.30;;
77010;SDS011;65945;53.148;17.956;2023-01-13T04:57:49;4.30;;;3.10;;
77010;SDS011;65945;53.148;17.956;2023-01-13T05:00:16;4.90;;;3.00;;
77010;SDS011;65945;53.148;17.956;2023-01-13T05:02:45;6.50;;;3.20;;
77010;SDS011;65945;53.148;17.956;2023-01-13T05:05:11;3.60;;;2.80;;
77010;SDS011;65945;53.148;17.956;2023-01-13T05:07:38;5.30;;;3.30;;
77010;SDS011;65945;53.148;17.956;2023-01-13T05:10:05;7.20;;;2.90;;
77010;SDS011;65945;53.148;17.956;2023-01-13T05:12:31;5.20;;;3.00;;
77010;SDS011;65945;53.148;17.956;2023-01-13T05:15:17;5.10;;;2.80;;
77010;SDS011;65945;53.148;17.956;2023-01-13T05:18:03;7.50;;;3.40;;
77010;SDS011;65945;53.148;17.956;2023-01-13T05:20:29;7.00;;;3.60;;
77010;SDS011;65945;53.148;17.956;2023-01-13T05:22:56;4.70;;;3.30;;
77010;SDS011;65945;53.148;17.956;2023-01-13T05:25:41;4.90;;;2.70;;
77010;SDS011;65945;53.148;17.956;2023-01-13T05:28:11;7.70;;;3.40;;
77010;SDS011;65945;53.148;17.956;2023-01-13T05:30:39;6.50;;;3.60;;
77010;SDS011;65945;53.148;17.956;2023-01-13T05:33:08;6.70;;;3.60;;
77010;SDS011;65945;53.148;17.956;2023-01-13T05:35:39;5.10;;;3.30;;
77010;SDS011;65945;53.148;17.956;2023-01-13T05:38:07;6.40;;;2.80;;
77010;SDS011;65945;53.148;17.956;2023-01-13T05:40:36;4.40;;;2.80;;
77010;SDS011;65945;53.148;17.956;2023-01-13T05:43:22;4.60;;;2.90;;
77010;SDS011;65945;53.148;17.956;2023-01-13T05:45:51;5.70;;;3.40;;
77010;SDS011;65945;53.148;17.956;2023-01-13T05:48:19;6.00;;;3.20;;
77010;SDS011;65945;53.148;17.956;2023-01-13T05:50:46;4.70;;;3.30;;
77010;SDS011;65945;53.148;17.956;2023-01-13T05:53:15;6.40;;;2.80;;
77010;SDS011;65945;53.148;17.956;2023-01-13T05:55:43;4.50;;;2.90;;
77010;SDS011;65945;53.148;17.956;2023-01-13T05:58:11;5.40;;;3.20;;
77010;SDS011;65945;53.148;17.956;2023-01-13T06:00:39;5.80;;;3.40;;
77010;SDS011;65945;53.148;17.956;2023-01-13T06:03:07;6.80;;;3.60;;
77010;SDS011;65945;53.148;17.956;2023-01-13T06:05:34;5.70;;;3.60;;
77010;SDS011;65945;53.148;17.956;2023-01-13T06:08:01;6.40;;;3.70;;
77010;SDS011;65945;53.148;17.956;2023-01-13T06:10:29;5.00;;;2.40;;
77010;SDS011;65945;53.148;17.956;2023-01-13T06:12:57;6.70;;;3.60;;
77010;SDS011;65945;53.148;17.956;2023-01-13T06:15:23;5.70;;;3.50;;
77010;SDS011;65945;53.148;17.956;2023-01-13T06:17:50;5.20;;;3.70;;
77010;SDS011;65945;53.148;17.956;2023-01-13T06:20:17;7.90;;;3.70;;
77010;SDS011;65945;53.148;17.956;2023-01-13T06:22:49;7.60;;;3.50;;
77010;SDS011;65945;53.148;17.956;2023-01-13T06:28:09;6.00;;;3.70;;
77010;SDS011;65945;53.148;17.956;2023-01-13T06:30:37;6.20;;;3.50;;
77010;SDS011;65945;53.148;17.956;2023-01-13T06:33:10;7.80;;;3.40;;
77010;SDS011;65945;53.148;17.956;2023-01-13T06:35:41;8.70;;;4.80;;
77010;SDS011;65945;53.148;17.956;2023-01-13T06:38:12;6.80;;;4.00;;
77010;SDS011;65945;53.148;17.956;2023-01-13T06:40:42;7.50;;;4.20;;
77010;SDS011;65945;53.148;17.956;2023-01-13T06:43:09;7.60;;;4.20;;
77010;SDS011;65945;53.148;17.956;2023-01-13T06:45:43;7.30;;;3.70;;
77010;SDS011;65945;53.148;17.956;2023-01-13T06:48:13;7.60;;;4.20;;
77010;SDS011;65945;53.148;17.956;2023-01-13T06:50:40;6.50;;;3.80;;
77010;SDS011;65945;53.148;17.956;2023-01-13T06:53:08;6.90;;;3.80;;
77010;SDS011;65945;53.148;17.956;2023-01-13T06:55:35;6.30;;;2.80;;
77010;SDS011;65945;53.148;17.956;2023-01-13T06:58:02;5.90;;;3.20;;
77010;SDS011;65945;53.148;17.956;2023-01-13T07:00:28;6.30;;;3.40;;
77010;SDS011;65945;53.148;17.956;2023-01-13T07:03:04;7.10;;;3.20;;
77010;SDS011;65945;53.148;17.956;2023-01-13T07:05:35;8.20;;;3.40;;
77010;SDS011;65945;53.148;17.956;2023-01-13T07:08:02;8.00;;;3.90;;
77010;SDS011;65945;53.148;17.956;2023-01-13T07:10:29;8.60;;;3.70;;
77010;SDS011;65945;53.148;17.956;2023-01-13T07:12:58;8.30;;;3.90;;
77010;SDS011;65945;53.148;17.956;2023-01-13T07:15:52;9.60;;;4.40;;
77010;SDS011;65945;53.148;17.956;2023-01-13T07:18:20;11.70;;;4.30;;
77010;SDS011;65945;53.148;17.956;2023-01-13T07:20:51;11.60;;;4.50;;
77010;SDS011;65945;53.148;17.956;2023-01-13T07:23:22;10.00;;;4.30;;
77010;SDS011;65945;53.148;17.956;2023-01-13T07:25:49;8.80;;;4.00;;
77010;SDS011;65945;53.148;17.956;2023-01-13T07:28:16;8.80;;;4.30;;
77010;SDS011;65945;53.148;17.956;2023-01-13T07:30:43;8.70;;;4.30;;
77010;SDS011;65945;53.148;17.956;2023-01-13T07:33:10;9.90;;;3.90;;
77010;SDS011;65945;53.148;17.956;2023-01-13T07:35:36;7.30;;;3.70;;
77010;SDS011;65945;53.148;17.956;2023-01-13T07:38:03;12.60;;;4.90;;
77010;SDS011;65945;53.148;17.956;2023-01-13T07:40:30;9.00;;;4.10;;
77010;SDS011;65945;53.148;17.956;2023-01-13T07:42:56;9.40;;;4.20;;
77010;SDS011;65945;53.148;17.956;2023-01-13T07:45:41;9.80;;;3.90;;
77010;SDS011;65945;53.148;17.956;2023-01-13T07:48:08;8.00;;;3.60;;
77010;SDS011;65945;53.148;17.956;2023-01-13T07:50:35;8.50;;;4.20;;
77010;SDS011;65945;53.148;17.956;2023-01-13T07:53:01;9.90;;;4.80;;
77010;SDS011;65945;53.148;17.956;2023-01-13T07:55:28;9.20;;;4.50;;
77010;SDS011;65945;53.148;17.956;2023-01-13T07:57:55;7.20;;;3.20;;
77010;SDS011;65945;53.148;17.956;2023-01-13T08:00:21;11.40;;;4.40;;
77010;SDS011;65945;53.148;17.956;2023-01-13T08:02:48;15.60;;;6.20;;
77010;SDS011;65945;53.148;17.956;2023-01-13T08:05:15;8.90;;;4.20;;
77010;SDS011;65945;53.148;17.956;2023-01-13T08:07:42;9.00;;;3.80;;
77010;SDS011;65945;53.148;17.956;2023-01-13T08:10:08;7.30;;;3.50;;
77010;SDS011;65945;53.148;17.956;2023-01-13T08:12:35;6.20;;;3.30;;
77010;SDS011;65945;53.148;17.956;2023-01-13T08:15:21;9.30;;;3.30;;
77010;SDS011;65945;53.148;17.956;2023-01-13T08:17:47;9.40;;;3.10;;
77010;SDS011;65945;53.148;17.956;2023-01-13T08:20:14;6.30;;;2.80;;
77010;SDS011;65945;53.148;17.956;2023-01-13T08:22:41;7.50;;;2.80;;
77010;SDS011;65945;53.148;17.956;2023-01-13T08:25:08;7.60;;;3.00;;
77010;SDS011;65945;53.148;17.956;2023-01-13T08:27:34;7.20;;;2.70;;
77010;SDS011;65945;53.148;17.956;2023-01-13T08:30:01;24.00;;;8.80;;
77010;SDS011;65945;53.148;17.956;2023-01-13T08:32:28;37.30;;;12.50;;
77010;SDS011;65945;53.148;17.956;2023-01-13T08:34:55;9.20;;;4.10;;
77010;SDS011;65945;53.148;17.956;2023-01-13T08:37:21;9.40;;;3.40;;
77010;SDS011;65945;53.148;17.956;2023-01-13T08:39:48;6.10;;;2.90;;
77010;SDS011;65945;53.148;17.956;2023-01-13T08:42:14;12.80;;;6.00;;
77010;SDS011;65945;53.148;17.956;2023-01-13T08:44:41;9.60;;;4.40;;
77010;SDS011;65945;53.148;17.956;2023-01-13T08:47:08;8.30;;;3.50;;
77010;SDS011;65945;53.148;17.956;2023-01-13T08:49:34;7.30;;;3.40;;
77010;SDS011;65945;53.148;17.956;2023-01-13T08:52:01;7.60;;;3.60;;
77010;SDS011;65945;53.148;17.956;2023-01-13T08:54:28;7.60;;;3.60;;
77010;SDS011;65945;53.148;17.956;2023-01-13T08:56:54;7.40;;;3.00;;
77010;SDS011;65945;53.148;17.956;2023-01-13T08:59:21;6.30;;;2.50;;
77010;SDS011;65945;53.148;17.956;2023-01-13T09:01:48;8.30;;;3.40;;
77010;SDS011;65945;53.148;17.956;2023-01-13T09:04:19;7.60;;;2.80;;
77010;SDS011;65945;53.148;17.956;2023-01-13T09:06:48;6.40;;;2.90;;
77010;SDS011;65945;53.148;17.956;2023-01-13T09:09:16;5.40;;;2.00;;
77010;SDS011;65945;53.148;17.956;2023-01-13T09:11:43;6.90;;;2.70;;
77010;SDS011;65945;53.148;17.956;2023-01-13T09:14:32;7.70;;;3.00;;
77010;SDS011;65945;53.148;17.956;2023-01-13T09:17:00;8.30;;;3.10;;
77010;SDS011;65945;53.148;17.956;2023-01-13T09:19:27;7.90;;;3.20;;
77010;SDS011;65945;53.148;17.956;2023-01-13T09:21:55;7.70;;;2.90;;
77010;SDS011;65945;53.148;17.956;2023-01-13T09:24:23;7.10;;;3.00;;
77010;SDS011;65945;53.148;17.956;2023-01-13T09:26:52;9.20;;;3.10;;
77010;SDS011;65945;53.148;17.956;2023-01-13T09:29:19;5.50;;;2.40;;
77010;SDS011;65945;53.148;17.956;2023-01-13T09:31:46;7.30;;;2.60;;
77010;SDS011;65945;53.148;17.956;2023-01-13T09:34:17;5.50;;;2.10;;
77010;SDS011;65945;53.148;17.956;2023-01-13T09:37:04;6.20;;;3.00;;
77010;SDS011;65945;53.148;17.956;2023-01-13T09:39:32;7.30;;;2.80;;
77010;SDS011;65945;53.148;17.956;2023-01-13T09:42:05;5.90;;;2.70;;
77010;SDS011;65945;53.148;17.956;2023-01-13T09:45:04;5.80;;;2.60;;
77010;SDS011;65945;53.148;17.956;2023-01-13T09:47:43;4.70;;;2.40;;
77010;SDS011;65945;53.148;17.956;2023-01-13T09:50:23;6.20;;;2.50;;
77010;SDS011;65945;53.148;17.956;2023-01-13T09:52:56;5.90;;;2.40;;
77010;SDS011;65945;53.148;17.956;2023-01-13T09:55:33;7.80;;;3.10;;
77010;SDS011;65945;53.148;17.956;2023-01-13T09:58:11;10.60;;;3.00;;
77010;SDS011;65945;53.148;17.956;2023-01-13T10:00:42;8.00;;;3.10;;
77010;SDS011;65945;53.148;17.956;2023-01-13T10:03:31;6.80;;;2.50;;
77010;SDS011;65945;53.148;17.956;2023-01-13T10:06:07;6.60;;;2.70;;
77010;SDS011;65945;53.148;17.956;2023-01-13T10:08:40;7.20;;;2.60;;
77010;SDS011;65945;53.148;17.956;2023-01-13T10:14:01;6.40;;;2.80;;
77010;SDS011;65945;53.148;17.956;2023-01-13T10:19:31;9.80;;;2.80;;
77010;SDS011;65945;53.148;17.956;2023-01-13T10:25:21;7.50;;;2.60;;
77010;SDS011;65945;53.148;17.956;2023-01-13T10:27:55;8.30;;;2.70;;
77010;SDS011;65945;53.148;17.956;2023-01-13T10:30:36;5.90;;;2.30;;
77010;SDS011;65945;53.148;17.956;2023-01-13T10:35:48;5.20;;;2.40;;
77010;SDS011;65945;53.148;17.956;2023-01-13T10:38:38;6.50;;;2.10;;
77010;SDS011;65945;53.148;17.956;2023-01-13T10:46:31;7.00;;;2.20;;
77010;SDS011;65945;53.148;17.956;2023-01-13T10:49:00;6.70;;;2.70;;
77010;SDS011;65945;53.148;17.956;2023-01-13T10:54:15;7.20;;;2.60;;
77010;SDS011;65945;53.148;17.956;2023-01-13T10:56:45;5.70;;;2.80;;
77010;SDS011;65945;53.148;17.956;2023-01-13T11:04:35;8.70;;;3.10;;
77010;SDS011;65945;53.148;17.956;2023-01-13T11:07:04;7.30;;;2.70;;
77010;SDS011;65945;53.148;17.956;2023-01-13T11:09:43;8.40;;;2.90;;
77010;SDS011;65945;53.148;17.956;2023-01-13T11:14:58;6.00;;;2.90;;
77010;SDS011;65945;53.148;17.956;2023-01-13T11:22:44;39.60;;;11.10;;
77010;SDS011;65945;53.148;17.956;2023-01-13T11:25:15;11.60;;;4.40;;
77010;SDS011;65945;53.148;17.956;2023-01-13T11:30:23;26.60;;;9.50;;
77010;SDS011;65945;53.148;17.956;2023-01-13T11:32:55;22.30;;;8.60;;
77010;SDS011;65945;53.148;17.956;2023-01-13T11:35:25;10.70;;;4.90;;
77010;SDS011;65945;53.148;17.956;2023-01-13T11:37:56;8.60;;;3.70;;
77010;SDS011;65945;53.148;17.956;2023-01-13T11:40:37;10.60;;;4.90;;
77010;SDS011;65945;53.148;17.956;2023-01-13T11:46:09;7.20;;;3.10;;
77010;SDS011;65945;53.148;17.956;2023-01-13T11:48:37;7.90;;;4.00;;
77010;SDS011;65945;53.148;17.956;2023-01-13T12:06:51;8.10;;;2.80;;
77010;SDS011;65945;53.148;17.956;2023-01-13T12:09:38;6.30;;;3.20;;
77010;SDS011;65945;53.148;17.956;2023-01-13T12:15:02;9.00;;;3.60;;
77010;SDS011;65945;53.148;17.956;2023-01-13T12:17:35;7.70;;;2.90;;
77010;SDS011;65945;53.148;17.956;2023-01-13T12:20:11;6.10;;;2.90;;
77010;SDS011;65945;53.148;17.956;2023-01-13T12:23:28;4.90;;;2.40;;
77010;SDS011;65945;53.148;17.956;2023-01-13T12:26:06;8.80;;;3.60;;
77010;SDS011;65945;53.148;17.956;2023-01-13T12:31:25;6.30;;;2.70;;
77010;SDS011;65945;53.148;17.956;2023-01-13T12:47:37;7.30;;;3.40;;
77010;SDS011;65945;53.148;17.956;2023-01-13T12:52:47;9.60;;;3.60;;
77010;SDS011;65945;53.148;17.956;2023-01-13T12:55:25;7.90;;;3.30;;
77010;SDS011;65945;53.148;17.956;2023-01-13T12:58:14;6.00;;;3.10;;
77010;SDS011;65945;53.148;17.956;2023-01-13T13:05:38;11.60;;;4.50;;
77010;SDS011;65945;53.148;17.956;2023-01-13T13:08:17;14.00;;;5.40;;
77010;SDS011;65945;53.148;17.956;2023-01-13T13:14:01;12.60;;;6.90;;
77010;SDS011;65945;53.148;17.956;2023-01-13T13:16:45;29.30;;;11.30;;
77010;SDS011;65945;53.148;17.956;2023-01-13T13:24:42;23.10;;;9.90;;
77010;SDS011;65945;53.148;17.956;2023-01-13T13:30:14;25.80;;;10.60;;
77010;SDS011;65945;53.148;17.956;2023-01-13T13:33:23;26.20;;;11.90;;
77010;SDS011;65945;53.148;17.956;2023-01-13T13:36:02;21.10;;;8.80;;
77010;SDS011;65945;53.148;17.956;2023-01-13T13:38:57;40.40;;;17.40;;
77010;SDS011;65945;53.148;17.956;2023-01-13T13:41:46;31.60;;;16.20;;
77010;SDS011;65945;53.148;17.956;2023-01-13T13:44:38;33.30;;;15.70;;
77010;SDS011;65945;53.148;17.956;2023-01-13T13:47:33;36.60;;;20.10;;
77010;SDS011;65945;53.148;17.956;2023-01-13T13:50:06;43.80;;;22.90;;
77010;SDS011;65945;53.148;17.956;2023-01-13T13:55:14;21.70;;;11.40;;
77010;SDS011;65945;53.148;17.956;2023-01-13T13:57:45;25.40;;;12.80;;
77010;SDS011;65945;53.148;17.956;2023-01-13T14:02:45;18.50;;;8.90;;
77010;SDS011;65945;53.148;17.956;2023-01-13T14:07:44;13.80;;;7.50;;
77010;SDS011;65945;53.148;17.956;2023-01-13T14:10:20;10.80;;;5.20;;
77010;SDS011;65945;53.148;17.956;2023-01-13T14:12:50;10.60;;;4.40;;
77010;SDS011;65945;53.148;17.956;2023-01-13T14:15:25;10.00;;;4.90;;
77010;SDS011;65945;53.148;17.956;2023-01-13T14:17:53;15.60;;;7.10;;
77010;SDS011;65945;53.148;17.956;2023-01-13T14:20:20;17.60;;;9.40;;
77010;SDS011;65945;53.148;17.956;2023-01-13T14:22:47;15.60;;;7.40;;
77010;SDS011;65945;53.148;17.956;2023-01-13T14:25:28;27.40;;;12.30;;
77010;SDS011;65945;53.148;17.956;2023-01-13T14:28:02;21.20;;;11.20;;
77010;SDS011;65945;53.148;17.956;2023-01-13T14:30:39;17.70;;;7.90;;
77010;SDS011;65945;53.148;17.956;2023-01-13T14:33:10;7.80;;;4.10;;
77010;SDS011;65945;53.148;17.956;2023-01-13T14:38:31;14.10;;;6.30;;
77010;SDS011;65945;53.148;17.956;2023-01-13T14:41:07;13.80;;;6.00;;
77010;SDS011;65945;53.148;17.956;2023-01-13T14:43:41;17.60;;;7.90;;
77010;SDS011;65945;53.148;17.956;2023-01-13T14:46:10;14.10;;;6.40;;
77010;SDS011;65945;53.148;17.956;2023-01-13T14:48:37;13.50;;;5.30;;
77010;SDS011;65945;53.148;17.956;2023-01-13T14:51:08;11.50;;;4.80;;
77010;SDS011;65945;53.148;17.956;2023-01-13T14:53:41;13.40;;;5.10;;
77010;SDS011;65945;53.148;17.956;2023-01-13T15:04:57;17.50;;;6.00;;
77010;SDS011;65945;53.148;17.956;2023-01-13T15:07:56;19.80;;;6.30;;
77010;SDS011;65945;53.148;17.956;2023-01-13T15:13:21;10.50;;;4.80;;
77010;SDS011;65945;53.148;17.956;2023-01-13T15:15:51;11.60;;;5.80;;
77010;SDS011;65945;53.148;17.956;2023-01-13T15:18:22;13.70;;;5.90;;
77010;SDS011;65945;53.148;17.956;2023-01-13T15:20:48;11.50;;;4.80;;
77010;SDS011;65945;53.148;17.956;2023-01-13T15:23:16;13.10;;;5.10;;
77010;SDS011;65945;53.148;17.956;2023-01-13T15:25:44;11.70;;;4.80;;
77010;SDS011;65945;53.148;17.956;2023-01-13T15:28:21;10.80;;;4.40;;
77010;SDS011;65945;53.148;17.956;2023-01-13T15:30:49;13.30;;;5.30;;
77010;SDS011;65945;53.148;17.956;2023-01-13T15:33:17;11.90;;;4.70;;
77010;SDS011;65945;53.148;17.956;2023-01-13T15:35:46;12.40;;;5.00;;
77010;SDS011;65945;53.148;17.956;2023-01-13T15:38:15;13.30;;;5.60;;
77010;SDS011;65945;53.148;17.956;2023-01-13T15:40:44;14.10;;;5.80;;
77010;SDS011;65945;53.148;17.956;2023-01-13T15:43:18;14.50;;;5.40;;
77010;SDS011;65945;53.148;17.956;2023-01-13T15:46:09;14.40;;;6.30;;
77010;SDS011;65945;53.148;17.956;2023-01-13T15:49:15;15.20;;;6.20;;
77010;SDS011;65945;53.148;17.956;2023-01-13T15:51:48;17.90;;;8.20;;
77010;SDS011;65945;53.148;17.956;2023-01-13T15:54:15;19.70;;;8.30;;
77010;SDS011;65945;53.148;17.956;2023-01-13T15:56:42;16.30;;;7.50;;
77010;SDS011;65945;53.148;17.956;2023-01-13T15:59:19;17.40;;;7.20;;
77010;SDS011;65945;53.148;17.956;2023-01-13T16:01:48;14.60;;;6.10;;
77010;SDS011;65945;53.148;17.956;2023-01-13T16:04:15;10.60;;;5.00;;
77010;SDS011;65945;53.148;17.956;2023-01-13T16:06:41;18.20;;;6.70;;
77010;SDS011;65945;53.148;17.956;2023-01-13T16:09:10;21.20;;;7.10;;
77010;SDS011;65945;53.148;17.956;2023-01-13T16:11:38;18.60;;;6.10;;
77010;SDS011;65945;53.148;17.956;2023-01-13T16:14:05;14.50;;;6.00;;
77010;SDS011;65945;53.148;17.956;2023-01-13T16:16:31;18.90;;;6.80;;
77010;SDS011;65945;53.148;17.956;2023-01-13T16:18:58;14.90;;;6.50;;
77010;SDS011;65945;53.148;17.956;2023-01-13T16:21:24;16.80;;;6.20;;
77010;SDS011;65945;53.148;17.956;2023-01-13T16:23:51;13.80;;;6.20;;
77010;SDS011;65945;53.148;17.956;2023-01-13T16:26:19;16.20;;;5.10;;
77010;SDS011;65945;53.148;17.956;2023-01-13T16:28:51;11.40;;;4.90;;
77010;SDS011;65945;53.148;17.956;2023-01-13T16:31:24;13.50;;;5.30;;
77010;SDS011;65945;53.148;17.956;2023-01-13T16:33:57;11.40;;;5.40;;
77010;SDS011;65945;53.148;17.956;2023-01-13T16:36:26;10.40;;;4.20;;
77010;SDS011;65945;53.148;17.956;2023-01-13T16:38:54;10.50;;;4.60;;
77010;SDS011;65945;53.148;17.956;2023-01-13T16:41:20;11.80;;;4.00;;
77010;SDS011;65945;53.148;17.956;2023-01-13T16:43:50;18.10;;;6.60;;
77010;SDS011;65945;53.148;17.956;2023-01-13T16:48:46;13.70;;;4.80;;
77010;SDS011;65945;53.148;17.956;2023-01-13T16:51:13;14.40;;;4.80;;
77010;SDS011;65945;53.148;17.956;2023-01-13T16:53:41;14.20;;;4.70;;
77010;SDS011;65945;53.148;17.956;2023-01-13T16:58:43;11.50;;;4.90;;
77010;SDS011;65945;53.148;17.956;2023-01-13T17:01:31;17.30;;;6.90;;
77010;SDS011;65945;53.148;17.956;2023-01-13T17:03:58;32.30;;;11.70;;
77010;SDS011;65945;53.148;17.956;2023-01-13T17:09:07;16.70;;;5.90;;
77010;SDS011;65945;53.148;17.956;2023-01-13T17:11:40;15.40;;;6.50;;
77010;SDS011;65945;53.148;17.956;2023-01-13T17:14:07;35.50;;;15.10;;
77010;SDS011;65945;53.148;17.956;2023-01-13T17:16:34;25.20;;;10.80;;
77010;SDS011;65945;53.148;17.956;2023-01-13T17:19:01;22.80;;;8.20;;
77010;SDS011;65945;53.148;17.956;2023-01-13T17:21:28;17.70;;;7.60;;
77010;SDS011;65945;53.148;17.956;2023-01-13T17:23:54;12.50;;;5.50;;
77010;SDS011;65945;53.148;17.956;2023-01-13T17:26:24;15.20;;;5.90;;
77010;SDS011;65945;53.148;17.956;2023-01-13T17:28:51;14.00;;;5.90;;
77010;SDS011;65945;53.148;17.956;2023-01-13T17:31:17;14.40;;;5.60;;
77010;SDS011;65945;53.148;17.956;2023-01-13T17:33:44;13.00;;;5.70;;
77010;SDS011;65945;53.148;17.956;2023-01-13T17:36:10;19.90;;;8.30;;
77010;SDS011;65945;53.148;17.956;2023-01-13T17:38:37;17.00;;;7.50;;